sensor_id;sensor_type;location;lat;lon;timestamp;pressure;altitude;pressure_sealevel;temperature;humidity
38303;BME280;24103;42.454;27.400;2023-04-27T00:01:57;100023.56;;;10.99;100.00
38303;BME280;24103;42.454;27.400;2023-04-27T00:04:22;100017.88;;;11.05;100.00
38303;BME280;24103;42.454;27.400;2023-04-27T00:06:47;100022.09;;;11.08;100.00
38303;BME280;24103;42.454;27.400;2023-04-27T00:09:13;100030.66;;;11.12;100.00
38303;BME280;24103;42.454;27.400;2023-04-27T00:11:38;100030.75;;;11.10;100.00
38303;BME280;24103;42.454;27.400;2023-04-27T00:14:04;100034.28;;;11.11;100.00
38303;BME280;24103;42.454;27.400;2023-04-27T00:16:29;100033.75;;;11.05;100.00
38303;BME280;24103;42.454;27.400;2023-04-27T00:18:55;100034.28;;;11.11;100.00
38303;BME280;24103;42.454;27.400;2023-04-27T00:21:20;100046.41;;;11.00;100.00
38303;BME280;24103;42.454;27.400;2023-04-27T00:23:46;100046.31;;;10.89;100.00
38303;BME280;24103;42.454;27.400;2023-04-27T00:26:11;100038.97;;;10.80;100.00
38303;BME280;24103;42.454;27.400;2023-04-27T00:28:37;100053.13;;;10.66;100.00
38303;BME280;24103;42.454;27.400;2023-04-27T00:31:02;100045.78;;;10.57;100.00
38303;BME280;24103;42.454;27.400;2023-04-27T00:33:29;100054.56;;;10.57;100.00
38303;BME280;24103;42.454;27.400;2023-04-27T00:35:58;100058.50;;;10.64;100.00
38303;BME280;24103;42.454;27.400;2023-04-27T00:38:26;100060.16;;;10.53;100.00
38303;BME280;24103;42.454;27.400;2023-04-27T00:40:51;100061.16;;;10.37;100.00
38303;BME280;24103;42.454;27.400;2023-04-27T00:43:17;100067.19;;;10.25;100.00
38303;BME280;24103;42.454;27.400;2023-04-27T00:45:42;100075.31;;;10.22;100.00
38303;BME280;24103;42.454;27.400;2023-04-27T00:48:10;100076.34;;;10.19;100.00
38303;BME280;24103;42.454;27.400;2023-04-27T00:50:35;100077.59;;;10.13;100.00
38303;BME280;24103;42.454;27.400;2023-04-27T00:53:04;100079.41;;;10.13;100.00
38303;BME280;24103;42.454;27.400;2023-04-27T00:55:30;100082.88;;;10.13;100.00
38303;BME280;24103;42.454;27.400;2023-04-27T00:57:55;100081.00;;;10.01;100.00
38303;BME280;24103;42.454;27.400;2023-04-27T01:00:21;100091.75;;;9.98;100.00
38303;BME280;24103;42.454;27.400;2023-04-27T01:02:46;100084.03;;;9.95;100.00
38303;BME280;24103;42.454;27.400;2023-04-27T01:05:13;100101.00;;;9.91;100.00
38303;BME280;24103;42.454;27.400;2023-04-27T01:07:39;100105.34;;;9.92;100.00
38303;BME280;24103;42.454;27.400;2023-04-27T01:10:05;100098.34;;;9.91;100.00
38303;BME280;24103;42.454;27.400;2023-04-27T01:12:31;100106.28;;;9.91;100.00
38303;BME280;24103;42.454;27.400;2023-04-27T01:14:57;100098.94;;;9.82;100.00
38303;BME280;24103;42.454;27.400;2023-04-27T01:17:22;100104.78;;;9.87;100.00
38303;BME280;24103;42.454;27.400;2023-04-27T01:19:48;100096.56;;;9.91;100.00
38303;BME280;24103;42.454;27.400;2023-04-27T01:22:16;100113.34;;;9.90;100.00
38303;BME280;24103;42.454;27.400;2023-04-27T01:24:41;100117.38;;;9.96;100.00
38303;BME280;24103;42.454;27.400;2023-04-27T01:27:07;100121.91;;;9.94;100.00
38303;BME280;24103;42.454;27.400;2023-04-27T01:29:32;100120.34;;;9.77;100.00
38303;BME280;24103;42.454;27.400;2023-04-27T01:31:58;100125.78;;;9.59;100.00
38303;BME280;24103;42.454;27.400;2023-04-27T01:34:23;100127.56;;;9.45;100.00
38303;BME280;24103;42.454;27.400;2023-04-27T01:36:49;100127.63;;;9.43;100.00
38303;BME280;24103;42.454;27.400;2023-04-27T01:39:14;100129.78;;;9.36;100.00
38303;BME280;24103;42.454;27.400;2023-04-27T01:41:40;100126.88;;;9.41;100.00
38303;BME280;24103;42.454;27.400;2023-04-27T01:44:06;100135.16;;;9.35;100.00
38303;BME280;24103;42.454;27.400;2023-04-27T01:46:31;100126.41;;;9.34;100.00
38303;BME280;24103;42.454;27.400;2023-04-27T01:48:57;100130.94;;;9.32;100.00
38303;BME280;24103;42.454;27.400;2023-04-27T01:51:22;100138.25;;;9.27;100.00
38303;BME280;24103;42.454;27.400;2023-04-27T01:53:48;100143.31;;;9.16;100.00
38303;BME280;24103;42.454;27.400;2023-04-27T01:56:13;100153.09;;;9.14;100.00
38303;BME280;24103;42.454;27.400;2023-04-27T01:58:39;100156.44;;;9.01;100.00
38303;BME280;24103;42.454;27.400;2023-04-27T02:01:04;100163.41;;;9.02;100.00
38303;BME280;24103;42.454;27.400;2023-04-27T02:03:30;100159.97;;;8.86;100.00
38303;BME280;24103;42.454;27.400;2023-04-27T02:05:55;100158.69;;;8.77;100.00
38303;BME280;24103;42.454;27.400;2023-04-27T02:08:21;100157.41;;;8.69;100.00
38303;BME280;24103;42.454;27.400;2023-04-27T02:10:46;100167.28;;;8.65;100.00
38303;BME280;24103;42.454;27.400;2023-04-27T02:13:12;100174.59;;;8.60;100.00
38303;BME280;24103;42.454;27.400;2023-04-27T02:15:37;100175.84;;;8.53;100.00
38303;BME280;24103;42.454;27.400;2023-04-27T02:18:03;100171.63;;;8.50;100.00
38303;BME280;24103;42.454;27.400;2023-04-27T02:20:30;100180.53;;;8.47;100.00
38303;BME280;24103;42.454;27.400;2023-04-27T02:22:56;100190.59;;;8.39;100.00
38303;BME280;24103;42.454;27.400;2023-04-27T02:25:21;100199.19;;;8.27;100.00
38303;BME280;24103;42.454;27.400;2023-04-27T02:27:47;100195.00;;;8.23;100.00
38303;BME280;24103;42.454;27.400;2023-04-27T02:30:13;100193.78;;;8.12;100.00
38303;BME280;24103;42.454;27.400;2023-04-27T02:32:38;100193.50;;;8.01;100.00
38303;BME280;24103;42.454;27.400;2023-04-27T02:35:06;100205.59;;;8.05;100.00
38303;BME280;24103;42.454;27.400;2023-04-27T02:37:32;100199.28;;;7.92;100.00
38303;BME280;24103;42.454;27.400;2023-04-27T02:39:58;100209.94;;;7.89;100.00
38303;BME280;24103;42.454;27.400;2023-04-27T02:42:24;100192.47;;;7.88;100.00
38303;BME280;24103;42.454;27.400;2023-04-27T02:44:49;100205.00;;;7.83;100.00
38303;BME280;24103;42.454;27.400;2023-04-27T02:47:15;100212.91;;;7.83;100.00
38303;BME280;24103;42.454;27.400;2023-04-27T02:49:40;100207.41;;;7.70;100.00
38303;BME280;24103;42.454;27.400;2023-04-27T02:52:06;100214.31;;;7.72;100.00
38303;BME280;24103;42.454;27.400;2023-04-27T02:54:32;100218.75;;;7.70;100.00
38303;BME280;24103;42.454;27.400;2023-04-27T02:56:58;100229.34;;;7.86;100.00
38303;BME280;24103;42.454;27.400;2023-04-27T02:59:23;100238.19;;;7.85;100.00
38303;BME280;24103;42.454;27.400;2023-04-27T03:01:49;100241.22;;;7.78;100.00
38303;BME280;24103;42.454;27.400;2023-04-27T03:04:15;100249.56;;;7.86;100.00
38303;BME280;24103;42.454;27.400;2023-04-27T03:06:42;100257.31;;;7.89;100.00
38303;BME280;24103;42.454;27.400;2023-04-27T03:09:07;100261.47;;;7.93;100.00
38303;BME280;24103;42.454;27.400;2023-04-27T03:11:35;100261.63;;;7.90;100.00
38303;BME280;24103;42.454;27.400;2023-04-27T03:14:01;100267.66;;;7.92;100.00
38303;BME280;24103;42.454;27.400;2023-04-27T03:16:26;100271.06;;;7.77;100.00
38303;BME280;24103;42.454;27.400;2023-04-27T03:18:52;100271.69;;;7.82;100.00
38303;BME280;24103;42.454;27.400;2023-04-27T03:21:17;100275.25;;;7.81;100.00
38303;BME280;24103;42.454;27.400;2023-04-27T03:23:43;100282.34;;;7.79;100.00
38303;BME280;24103;42.454;27.400;2023-04-27T03:26:11;100289.78;;;7.70;100.00
38303;BME280;24103;42.454;27.400;2023-04-27T03:28:37;100281.03;;;7.70;100.00
38303;BME280;24103;42.454;27.400;2023-04-27T03:31:07;100286.69;;;7.80;100.00
38303;BME280;24103;42.454;27.400;2023-04-27T03:33:33;100290.88;;;7.84;100.00
38303;BME280;24103;42.454;27.400;2023-04-27T03:35:58;100295.75;;;7.74;100.00
38303;BME280;24103;42.454;27.400;2023-04-27T03:38:25;100300.28;;;7.70;100.00
38303;BME280;24103;42.454;27.400;2023-04-27T03:40:51;100305.72;;;7.85;100.00
38303;BME280;24103;42.454;27.400;2023-04-27T03:43:18;100299.06;;;7.95;100.00
38303;BME280;24103;42.454;27.400;2023-04-27T03:45:44;100300.78;;;7.96;100.00
38303;BME280;24103;42.454;27.400;2023-04-27T03:48:10;100311.53;;;8.09;100.00
38303;BME280;24103;42.454;27.400;2023-04-27T03:50:35;100309.81;;;8.08;100.00
38303;BME280;24103;42.454;27.400;2023-04-27T03:53:00;100320.63;;;8.19;100.00
38303;BME280;24103;42.454;27.400;2023-04-27T03:55:26;100313.28;;;8.26;100.00
38303;BME280;24103;42.454;27.400;2023-04-27T03:57:52;100327.03;;;8.31;100.00
38303;BME280;24103;42.454;27.400;2023-04-27T04:00:17;100321.25;;;8.24;100.00
38303;BME280;24103;42.454;27.400;2023-04-27T04:02:44;100319.81;;;8.19;100.00
38303;BME280;24103;42.454;27.400;2023-04-27T04:05:10;100328.22;;;8.25;100.00
38303;BME280;24103;42.454;27.400;2023-04-27T04:07:36;100326.97;;;8.33;100.00
38303;BME280;24103;42.454;27.400;2023-04-27T04:10:01;100334.00;;;8.49;100.00
38303;BME280;24103;42.454;27.400;2023-04-27T04:12:27;100344.16;;;8.57;100.00
38303;BME280;24103;42.454;27.400;2023-04-27T04:14:53;100337.88;;;8.60;100.00
38303;BME280;24103;42.454;27.400;2023-04-27T04:17:18;100346.06;;;8.71;100.00
38303;BME280;24103;42.454;27.400;2023-04-27T04:19:43;100353.78;;;8.74;100.00
38303;BME280;24103;42.454;27.400;2023-04-27T04:22:09;100354.66;;;8.91;100.00
38303;BME280;24103;42.454;27.400;2023-04-27T04:24:34;100348.72;;;8.87;100.00
38303;BME280;24103;42.454;27.400;2023-04-27T04:27:00;100355.44;;;9.09;100.00
38303;BME280;24103;42.454;27.400;2023-04-27T04:29:26;100355.03;;;9.16;100.00
38303;BME280;24103;42.454;27.400;2023-04-27T04:31:54;100362.50;;;9.08;100.00
38303;BME280;24103;42.454;27.400;2023-04-27T04:34:20;100357.25;;;9.08;100.00
38303;BME280;24103;42.454;27.400;2023-04-27T04:36:47;100368.38;;;9.13;100.00
38303;BME280;24103;42.454;27.400;2023-04-27T04:39:16;100362.94;;;9.16;100.00
38303;BME280;24103;42.454;27.400;2023-04-27T04:41:43;100360.97;;;9.20;100.00
38303;BME280;24103;42.454;27.400;2023-04-27T04:44:08;100358.94;;;9.25;100.00
38303;BME280;24103;42.454;27.400;2023-04-27T04:46:34;100371.13;;;9.28;100.00
38303;BME280;24103;42.454;27.400;2023-04-27T04:49:01;100376.06;;;9.34;100.00
38303;BME280;24103;42.454;27.400;2023-04-27T04:51:26;100377.81;;;9.33;100.00
38303;BME280;24103;42.454;27.400;2023-04-27T04:53:52;100369.75;;;9.36;100.00
38303;BME280;24103;42.454;27.400;2023-04-27T04:56:17;100379.69;;;9.31;100.00
38303;BME280;24103;42.454;27.400;2023-04-27T04:58:43;100380.28;;;9.36;100.00
38303;BME280;24103;42.454;27.400;2023-04-27T05:01:08;100368.03;;;9.35;100.00
38303;BME280;24103;42.454;27.400;2023-04-27T05:03:34;100378.06;;;9.45;100.00
38303;BME280;24103;42.454;27.400;2023-04-27T05:05:59;100381.56;;;9.45;100.00
38303;BME280;24103;42.454;27.400;2023-04-27T05:08:25;100389.06;;;9.53;100.00
38303;BME280;24103;42.454;27.400;2023-04-27T05:10:51;100387.84;;;9.58;100.00
38303;BME280;24103;42.454;27.400;2023-04-27T05:13:18;100391.69;;;9.69;100.00
38303;BME280;24103;42.454;27.400;2023-04-27T05:15:44;100391.16;;;9.78;100.00
38303;BME280;24103;42.454;27.400;2023-04-27T05:18:10;100393.03;;;9.76;100.00
38303;BME280;24103;42.454;27.400;2023-04-27T05:20:37;100385.28;;;9.73;100.00
38303;BME280;24103;42.454;27.400;2023-04-27T05:23:02;100399.69;;;9.67;100.00
38303;BME280;24103;42.454;27.400;2023-04-27T05:25:31;100393.78;;;9.78;100.00
38303;BME280;24103;42.454;27.400;2023-04-27T05:27:57;100380.59;;;9.78;100.00
38303;BME280;24103;42.454;27.400;2023-04-27T05:30:23;100390.38;;;9.76;100.00
38303;BME280;24103;42.454;27.400;2023-04-27T05:32:48;100392.94;;;9.77;100.00
38303;BME280;24103;42.454;27.400;2023-04-27T05:35:14;100397.00;;;9.83;100.00
38303;BME280;24103;42.454;27.400;2023-04-27T05:37:39;100401.75;;;9.92;100.00
38303;BME280;24103;42.454;27.400;2023-04-27T05:40:06;100402.59;;;9.93;100.00
38303;BME280;24103;42.454;27.400;2023-04-27T05:42:35;100401.91;;;10.05;100.00
38303;BME280;24103;42.454;27.400;2023-04-27T05:45:01;100401.84;;;10.21;100.00
38303;BME280;24103;42.454;27.400;2023-04-27T05:47:27;100410.59;;;10.38;100.00
38303;BME280;24103;42.454;27.400;2023-04-27T05:49:53;100408.25;;;10.47;100.00
38303;BME280;24103;42.454;27.400;2023-04-27T05:52:19;100404.25;;;10.56;100.00
38303;BME280;24103;42.454;27.400;2023-04-27T05:54:46;100403.28;;;10.57;100.00
38303;BME280;24103;42.454;27.400;2023-04-27T05:57:12;100409.13;;;10.62;100.00
38303;BME280;24103;42.454;27.400;2023-04-27T05:59:38;100419.31;;;10.54;100.00
38303;BME280;24103;42.454;27.400;2023-04-27T06:02:03;100420.00;;;10.58;100.00
38303;BME280;24103;42.454;27.400;2023-04-27T06:04:29;100415.88;;;10.68;100.00
38303;BME280;24103;42.454;27.400;2023-04-27T06:06:56;100416.34;;;10.75;100.00
38303;BME280;24103;42.454;27.400;2023-04-27T06:09:22;100418.50;;;10.68;100.00
38303;BME280;24103;42.454;27.400;2023-04-27T06:11:47;100410.66;;;10.66;100.00
38303;BME280;24103;42.454;27.400;2023-04-27T06:14:13;100409.13;;;10.62;100.00
38303;BME280;24103;42.454;27.400;2023-04-27T06:16:38;100412.47;;;10.80;100.00
38303;BME280;24103;42.454;27.400;2023-04-27T06:19:05;100412.66;;;10.92;100.00
38303;BME280;24103;42.454;27.400;2023-04-27T06:21:32;100420.50;;;10.93;100.00
38303;BME280;24103;42.454;27.400;2023-04-27T06:23:58;100406.53;;;11.05;100.00
38303;BME280;24103;42.454;27.400;2023-04-27T06:26:24;100404.53;;;10.95;100.00
38303;BME280;24103;42.454;27.400;2023-04-27T06:28:49;100403.88;;;10.91;100.00
38303;BME280;24103;42.454;27.400;2023-04-27T06:31:15;100407.16;;;10.80;100.00
38303;BME280;24103;42.454;27.400;2023-04-27T06:33:41;100407.94;;;10.82;100.00
38303;BME280;24103;42.454;27.400;2023-04-27T06:36:06;100414.47;;;11.05;100.00
38303;BME280;24103;42.454;27.400;2023-04-27T06:38:32;100403.94;;;11.18;97.57
38303;BME280;24103;42.454;27.400;2023-04-27T06:40:57;100403.47;;;11.12;92.28
38303;BME280;24103;42.454;27.400;2023-04-27T06:43:23;100414.72;;;11.30;97.52
38303;BME280;24103;42.454;27.400;2023-04-27T06:45:49;100424.72;;;11.24;97.51
38303;BME280;24103;42.454;27.400;2023-04-27T06:48:14;100431.88;;;11.51;100.00
38303;BME280;24103;42.454;27.400;2023-04-27T06:50:41;100416.63;;;11.55;95.86
38303;BME280;24103;42.454;27.400;2023-04-27T06:53:07;100432.78;;;11.65;97.44
38303;BME280;24103;42.454;27.400;2023-04-27T06:55:33;100422.09;;;11.66;94.19
38303;BME280;24103;42.454;27.400;2023-04-27T06:57:59;100429.06;;;11.82;99.09
38303;BME280;24103;42.454;27.400;2023-04-27T07:00:25;100426.31;;;11.83;90.77
38303;BME280;24103;42.454;27.400;2023-04-27T07:02:51;100419.50;;;11.52;90.25
38303;BME280;24103;42.454;27.400;2023-04-27T07:05:20;100434.63;;;11.91;100.00
38303;BME280;24103;42.454;27.400;2023-04-27T07:07:45;100419.44;;;11.66;86.77
38303;BME280;24103;42.454;27.400;2023-04-27T07:10:11;100419.31;;;11.82;90.91
38303;BME280;24103;42.454;27.400;2023-04-27T07:12:38;100422.78;;;11.83;93.07
38303;BME280;24103;42.454;27.400;2023-04-27T07:15:05;100417.78;;;11.92;89.43
38303;BME280;24103;42.454;27.400;2023-04-27T07:17:31;100399.81;;;11.56;84.20
38303;BME280;24103;42.454;27.400;2023-04-27T07:19:57;100424.81;;;11.79;91.29
38303;BME280;24103;42.454;27.400;2023-04-27T07:22:22;100414.34;;;12.05;88.36
38303;BME280;24103;42.454;27.400;2023-04-27T07:24:48;100413.56;;;11.75;85.22
38303;BME280;24103;42.454;27.400;2023-04-27T07:27:14;100420.91;;;11.57;84.47
38303;BME280;24103;42.454;27.400;2023-04-27T07:29:39;100420.88;;;11.72;90.02
38303;BME280;24103;42.454;27.400;2023-04-27T07:32:06;100435.34;;;12.08;90.66
38303;BME280;24103;42.454;27.400;2023-04-27T07:34:31;100424.94;;;12.17;86.25
38303;BME280;24103;42.454;27.400;2023-04-27T07:36:57;100420.00;;;12.26;87.43
38303;BME280;24103;42.454;27.400;2023-04-27T07:39:22;100427.13;;;12.38;83.66
38303;BME280;24103;42.454;27.400;2023-04-27T07:41:48;100422.06;;;12.48;82.25
38303;BME280;24103;42.454;27.400;2023-04-27T07:44:16;100410.94;;;13.07;75.37
38303;BME280;24103;42.454;27.400;2023-04-27T07:46:41;100415.34;;;13.45;74.47
38303;BME280;24103;42.454;27.400;2023-04-27T07:49:07;100406.22;;;13.36;68.71
38303;BME280;24103;42.454;27.400;2023-04-27T07:51:33;100409.41;;;13.41;70.81
38303;BME280;24103;42.454;27.400;2023-04-27T07:53:59;100415.25;;;13.21;73.32
38303;BME280;24103;42.454;27.400;2023-04-27T07:56:26;100412.69;;;13.69;73.73
38303;BME280;24103;42.454;27.400;2023-04-27T07:58:52;100413.19;;;14.23;69.27
38303;BME280;24103;42.454;27.400;2023-04-27T08:01:17;100403.56;;;14.44;65.30
38303;BME280;24103;42.454;27.400;2023-04-27T08:03:43;100418.88;;;14.65;69.77
38303;BME280;24103;42.454;27.400;2023-04-27T08:06:08;100411.88;;;14.75;66.09
38303;BME280;24103;42.454;27.400;2023-04-27T08:08:33;100402.72;;;15.02;61.01
38303;BME280;24103;42.454;27.400;2023-04-27T08:10:59;100405.00;;;15.06;60.50
38303;BME280;24103;42.454;27.400;2023-04-27T08:13:25;100397.97;;;14.94;56.98
38303;BME280;24103;42.454;27.400;2023-04-27T08:15:50;100396.78;;;14.87;58.20
38303;BME280;24103;42.454;27.400;2023-04-27T08:18:18;100402.00;;;14.53;56.24
38303;BME280;24103;42.454;27.400;2023-04-27T08:20:43;100401.34;;;14.62;59.02
38303;BME280;24103;42.454;27.400;2023-04-27T08:23:09;100399.47;;;14.51;57.16
38303;BME280;24103;42.454;27.400;2023-04-27T08:25:35;100411.88;;;14.86;61.22
38303;BME280;24103;42.454;27.400;2023-04-27T08:28:01;100414.56;;;14.75;59.18
38303;BME280;24103;42.454;27.400;2023-04-27T08:30:27;100408.72;;;14.70;60.07
38303;BME280;24103;42.454;27.400;2023-04-27T08:32:52;100403.19;;;14.37;55.16
38303;BME280;24103;42.454;27.400;2023-04-27T08:35:18;100400.44;;;14.39;56.55
38303;BME280;24103;42.454;27.400;2023-04-27T08:37:44;100390.09;;;14.70;54.41
38303;BME280;24103;42.454;27.400;2023-04-27T08:40:10;100388.66;;;15.22;53.21
38303;BME280;24103;42.454;27.400;2023-04-27T08:42:36;100390.72;;;15.19;53.54
38303;BME280;24103;42.454;27.400;2023-04-27T08:45:01;100393.38;;;15.19;54.48
38303;BME280;24103;42.454;27.400;2023-04-27T08:47:27;100390.72;;;15.19;55.67
38303;BME280;24103;42.454;27.400;2023-04-27T08:49:53;100386.00;;;15.11;53.01
38303;BME280;24103;42.454;27.400;2023-04-27T08:52:18;100384.59;;;14.02;54.45
38303;BME280;24103;42.454;27.400;2023-04-27T08:54:43;100383.59;;;13.92;56.00
38303;BME280;24103;42.454;27.400;2023-04-27T08:57:10;100383.78;;;14.13;53.60
38303;BME280;24103;42.454;27.400;2023-04-27T08:59:37;100393.97;;;14.30;53.08
38303;BME280;24103;42.454;27.400;2023-04-27T09:02:03;100372.97;;;14.27;51.13
38303;BME280;24103;42.454;27.400;2023-04-27T09:04:38;100371.53;;;13.99;52.18
38303;BME280;24103;42.454;27.400;2023-04-27T09:07:16;100377.06;;;13.85;50.57
38303;BME280;24103;42.454;27.400;2023-04-27T09:09:43;100370.75;;;13.86;52.13
38303;BME280;24103;42.454;27.400;2023-04-27T09:12:17;100358.69;;;13.81;49.81
38303;BME280;24103;42.454;27.400;2023-04-27T09:14:54;100365.34;;;13.87;49.61
38303;BME280;24103;42.454;27.400;2023-04-27T09:17:24;100370.16;;;14.17;51.31
38303;BME280;24103;42.454;27.400;2023-04-27T09:19:50;100372.72;;;14.77;54.15
38303;BME280;24103;42.454;27.400;2023-04-27T09:22:15;100345.97;;;15.01;48.65
38303;BME280;24103;42.454;27.400;2023-04-27T09:24:51;100349.97;;;15.18;49.18
38303;BME280;24103;42.454;27.400;2023-04-27T09:27:20;100347.66;;;15.14;48.90
38303;BME280;24103;42.454;27.400;2023-04-27T09:29:46;100352.78;;;15.49;51.52
38303;BME280;24103;42.454;27.400;2023-04-27T09:32:18;100339.75;;;15.35;49.16
38303;BME280;24103;42.454;27.400;2023-04-27T09:34:45;100344.72;;;15.72;49.72
38303;BME280;24103;42.454;27.400;2023-04-27T09:37:11;100324.66;;;15.68;45.92
38303;BME280;24103;42.454;27.400;2023-04-27T09:39:37;100341.16;;;14.95;48.80
38303;BME280;24103;42.454;27.400;2023-04-27T09:42:04;100336.88;;;15.26;48.59
38303;BME280;24103;42.454;27.400;2023-04-27T09:44:30;100337.31;;;14.77;48.12
38303;BME280;24103;42.454;27.400;2023-04-27T09:47:00;100339.53;;;15.26;48.32
38303;BME280;24103;42.454;27.400;2023-04-27T09:49:26;100345.31;;;15.43;50.22
38303;BME280;24103;42.454;27.400;2023-04-27T09:51:54;100348.75;;;15.77;51.48
38303;BME280;24103;42.454;27.400;2023-04-27T09:54:25;100333.47;;;15.68;48.43
38303;BME280;24103;42.454;27.400;2023-04-27T09:59:47;100332.56;;;15.58;47.35
38303;BME280;24103;42.454;27.400;2023-04-27T10:02:18;100336.69;;;15.51;47.66
38303;BME280;24103;42.454;27.400;2023-04-27T10:07:28;100346.38;;;14.85;47.47
38303;BME280;24103;42.454;27.400;2023-04-27T10:09:54;100357.00;;;14.85;45.36
38303;BME280;24103;42.454;27.400;2023-04-27T10:12:33;100353.88;;;14.91;46.83
38303;BME280;24103;42.454;27.400;2023-04-27T10:15:15;100339.28;;;15.29;46.83
38303;BME280;24103;42.454;27.400;2023-04-27T10:17:49;100340.44;;;15.92;47.67
38303;BME280;24103;42.454;27.400;2023-04-27T10:20:15;100345.91;;;16.11;47.46
38303;BME280;24103;42.454;27.400;2023-04-27T10:22:46;100337.13;;;15.99;47.92
38303;BME280;24103;42.454;27.400;2023-04-27T10:25:20;100345.25;;;16.19;46.77
38303;BME280;24103;42.454;27.400;2023-04-27T10:30:19;100340.63;;;15.79;46.52
38303;BME280;24103;42.454;27.400;2023-04-27T10:32:58;100353.09;;;15.78;47.86
38303;BME280;24103;42.454;27.400;2023-04-27T10:35:44;100344.91;;;15.91;47.95
38303;BME280;24103;42.454;27.400;2023-04-27T10:38:18;100338.59;;;15.60;46.51
38303;BME280;24103;42.454;27.400;2023-04-27T10:40:54;100331.72;;;15.90;47.46
38303;BME280;24103;42.454;27.400;2023-04-27T10:43:24;100333.50;;;16.00;45.32
38303;BME280;24103;42.454;27.400;2023-04-27T10:45:53;100328.19;;;15.57;44.95
38303;BME280;24103;42.454;27.400;2023-04-27T10:48:19;100324.13;;;15.74;45.01
38303;BME280;24103;42.454;27.400;2023-04-27T10:50:44;100331.41;;;16.04;45.71
38303;BME280;24103;42.454;27.400;2023-04-27T10:53:12;100325.50;;;16.00;45.92
38303;BME280;24103;42.454;27.400;2023-04-27T10:55:39;100336.56;;;16.17;45.56
38303;BME280;24103;42.454;27.400;2023-04-27T10:58:04;100319.13;;;16.34;44.88
38303;BME280;24103;42.454;27.400;2023-04-27T11:00:40;100330.53;;;16.46;46.26
38303;BME280;24103;42.454;27.400;2023-04-27T11:03:20;100328.94;;;16.33;45.43
38303;BME280;24103;42.454;27.400;2023-04-27T11:05:48;100342.47;;;16.20;45.47
38303;BME280;24103;42.454;27.400;2023-04-27T11:08:16;100342.78;;;16.48;48.69
38303;BME280;24103;42.454;27.400;2023-04-27T11:10:47;100349.00;;;16.58;47.00
38303;BME280;24103;42.454;27.400;2023-04-27T11:13:21;100340.91;;;16.18;45.40
38303;BME280;24103;42.454;27.400;2023-04-27T11:15:51;100336.97;;;15.69;43.55
38303;BME280;24103;42.454;27.400;2023-04-27T11:18:19;100347.25;;;15.84;45.90
38303;BME280;24103;42.454;27.400;2023-04-27T11:20:47;100348.47;;;15.80;44.49
38303;BME280;24103;42.454;27.400;2023-04-27T11:23:24;100345.41;;;15.53;45.54
38303;BME280;24103;42.454;27.400;2023-04-27T11:25:50;100364.06;;;16.17;48.00
38303;BME280;24103;42.454;27.400;2023-04-27T11:28:19;100359.88;;;16.25;47.89
38303;BME280;24103;42.454;27.400;2023-04-27T11:30:45;100359.44;;;16.19;46.76
38303;BME280;24103;42.454;27.400;2023-04-27T11:33:11;100354.94;;;15.99;46.17
38303;BME280;24103;42.454;27.400;2023-04-27T11:35:37;100359.25;;;16.32;45.77
38303;BME280;24103;42.454;27.400;2023-04-27T11:38:03;100350.78;;;16.27;45.25
38303;BME280;24103;42.454;27.400;2023-04-27T11:40:29;100350.34;;;16.22;44.06
38303;BME280;24103;42.454;27.400;2023-04-27T11:42:58;100345.53;;;16.16;43.46
38303;BME280;24103;42.454;27.400;2023-04-27T11:45:25;100344.41;;;16.39;43.43
38303;BME280;24103;42.454;27.400;2023-04-27T11:47:57;100342.47;;;16.42;44.17
38303;BME280;24103;42.454;27.400;2023-04-27T11:50:23;100336.06;;;16.54;43.99
38303;BME280;24103;42.454;27.400;2023-04-27T11:52:49;100349.69;;;16.09;44.07
38303;BME280;24103;42.454;27.400;2023-04-27T11:55:15;100341.34;;;16.23;45.64
38303;BME280;24103;42.454;27.400;2023-04-27T11:57:41;100353.00;;;16.74;47.24
38303;BME280;24103;42.454;27.400;2023-04-27T12:00:07;100345.38;;;16.69;44.24
38303;BME280;24103;42.454;27.400;2023-04-27T12:02:39;100342.06;;;17.08;45.47
38303;BME280;24103;42.454;27.400;2023-04-27T12:05:05;100347.06;;;17.42;44.85
38303;BME280;24103;42.454;27.400;2023-04-27T12:07:31;100335.81;;;17.38;43.46
38303;BME280;24103;42.454;27.400;2023-04-27T12:09:57;100339.47;;;17.27;43.25
38303;BME280;24103;42.454;27.400;2023-04-27T12:12:23;100338.31;;;17.30;43.57
38303;BME280;24103;42.454;27.400;2023-04-27T12:14:49;100342.00;;;17.39;44.04
38303;BME280;24103;42.454;27.400;2023-04-27T12:17:15;100341.16;;;17.38;44.55
38303;BME280;24103;42.454;27.400;2023-04-27T12:19:40;100346.00;;;16.83;43.33
38303;BME280;24103;42.454;27.400;2023-04-27T12:22:06;100334.09;;;16.56;43.88
38303;BME280;24103;42.454;27.400;2023-04-27T12:24:32;100356.31;;;16.35;45.59
38303;BME280;24103;42.454;27.400;2023-04-27T12:26:58;100350.50;;;16.51;44.48
38303;BME280;24103;42.454;27.400;2023-04-27T12:29:24;100356.94;;;16.70;44.88
38303;BME280;24103;42.454;27.400;2023-04-27T12:31:50;100358.97;;;16.87;46.30
38303;BME280;24103;42.454;27.400;2023-04-27T12:34:16;100353.53;;;16.89;44.50
38303;BME280;24103;42.454;27.400;2023-04-27T12:36:42;100349.63;;;16.93;44.85
38303;BME280;24103;42.454;27.400;2023-04-27T12:39:13;100347.34;;;16.67;44.88
38303;BME280;24103;42.454;27.400;2023-04-27T12:41:39;100350.72;;;16.69;44.78
38303;BME280;24103;42.454;27.400;2023-04-27T12:44:05;100358.00;;;16.88;45.56